Dades meteomassalio
Diari Summary for Marc 30, 2017 Units:  Metric    English   Both
« Previous Day
Next Day »
Diari Semanal Mensual Anual Personalitzat
  Maxima: Minima: Mijana:
Temperatura: 22.6 °C 4.5 °C 13.8 °C
Rosada: 10.7 °C 3.2 °C 6.6 °C
Humitat: 92 % 41 % 66 %
Velocitat del vent: 29.6 km/h 0.0 km/h 7.1 km/h
Racha vent: 29.6 km/h - -
Vent:- - ESE
Pressio: 1026.3 hPa 1020.9 hPa -
Pluja: 0.0 mm    
Historical Graphs
 
 
Tabular Data for Marc 30, 2017
Time Temperature Dew Point Pressure Wind Wind Speed Wind Gust Humidity Rainfall Rate (Hourly) solar Conditions
00:01 10.3 °C 6.8 °C 1026.0 hPa Calm     79 % 0.0 mm 0.0 W/m2 CLR
00:06 10.2 °C 6.9 °C 1026.0 hPa Calm     80 % 0.0 mm 0.0 W/m2 CLR
00:11 10.1 °C 6.8 °C 1026.3 hPa Calm     80 % 0.0 mm 0.0 W/m2 CLR
00:16 10.1 °C 6.8 °C 1026.3 hPa Calm     80 % 0.0 mm 0.0 W/m2 CLR
00:21 10.0 °C 6.7 °C 1026.3 hPa Calm     80 % 0.0 mm 0.0 W/m2 CLR
00:26 9.7 °C 6.4 °C 1026.3 hPa Calm     80 % 0.0 mm 0.0 W/m2 CLR
00:31 9.5 °C 6.4 °C 1026.3 hPa Calm     81 % 0.0 mm 0.0 W/m2 CLR
00:36 9.4 °C 6.4 °C 1026.3 hPa Calm     82 % 0.0 mm 0.0 W/m2 CLR
00:41 9.2 °C 6.3 °C 1026.3 hPa Calm     82 % 0.0 mm 0.0 W/m2 CLR
00:46 9.1 °C 6.3 °C 1026.3 hPa Calm     83 % 0.0 mm 0.0 W/m2 CLR
00:51 8.9 °C 6.2 °C 1026.3 hPa Calm     83 % 0.0 mm 0.0 W/m2 CLR
00:56 8.9 °C 6.3 °C 1026.3 hPa Calm     84 % 0.0 mm 0.0 W/m2 CLR
01:01 8.8 °C 6.3 °C 1026.3 hPa Calm     84 % 0.0 mm 0.0 W/m2 CLR
01:06 8.7 °C 6.0 °C 1026.3 hPa Calm     83 % 0.0 mm 0.0 W/m2 CLR
01:11 8.6 °C 5.9 °C 1026.0 hPa Calm     83 % 0.0 mm 0.0 W/m2 CLR
01:16 8.5 °C 5.9 °C 1026.0 hPa Calm     84 % 0.0 mm 0.0 W/m2 CLR
01:21 8.3 °C 5.8 °C 1026.0 hPa Calm     84 % 0.0 mm 0.0 W/m2 CLR
01:26 8.2 °C 5.7 °C 1026.0 hPa Calm     84 % 0.0 mm 0.0 W/m2 CLR
01:31 8.1 °C 5.5 °C 1026.0 hPa Calm     84 % 0.0 mm 0.0 W/m2 CLR
01:36 7.9 °C 5.6 °C 1026.0 hPa Calm     85 % 0.0 mm 0.0 W/m2 CLR
01:41 7.9 °C 5.5 °C 1026.3 hPa Calm     85 % 0.0 mm 0.0 W/m2 CLR
01:46 7.8 °C 5.4 °C 1026.0 hPa Calm     85 % 0.0 mm 0.0 W/m2 CLR
01:51 7.8 °C 5.4 °C 1026.0 hPa Calm     85 % 0.0 mm 0.0 W/m2 CLR
01:56 7.7 °C 5.5 °C 1026.3 hPa Calm     86 % 0.0 mm 0.0 W/m2 CLR
02:01 7.6 °C 5.4 °C 1026.3 hPa Calm     86 % 0.0 mm 0.0 W/m2 CLR
02:06 7.5 °C 5.3 °C 1026.3 hPa Calm     86 % 0.0 mm 0.0 W/m2 CLR
02:11 7.4 °C 5.2 °C 1026.3 hPa Calm     86 % 0.0 mm 0.0 W/m2 CLR
02:16 7.3 °C 5.3 °C 1026.3 hPa Calm     87 % 0.0 mm 0.0 W/m2 CLR
02:21 7.2 °C 5.2 °C 1026.3 hPa Calm     87 % 0.0 mm 0.0 W/m2 CLR
02:26 7.2 °C 5.2 °C 1026.3 hPa Calm     87 % 0.0 mm 0.0 W/m2 CLR
02:31 7.1 °C 5.1 °C 1026.3 hPa Calm     87 % 0.0 mm 0.0 W/m2 CLR
02:36 7.1 °C 5.1 °C 1026.3 hPa Calm     87 % 0.0 mm 0.0 W/m2 CLR
02:41 7.1 °C 5.1 °C 1026.3 hPa Calm     87 % 0.0 mm 0.0 W/m2 CLR
02:46 6.9 °C 4.9 °C 1026.3 hPa Calm     87 % 0.0 mm 0.0 W/m2 CLR
02:51 6.8 °C 4.8 °C 1026.3 hPa Calm     87 % 0.0 mm 0.0 W/m2 CLR
02:56 6.7 °C 4.7 °C 1026.3 hPa Calm     87 % 0.0 mm 0.0 W/m2 CLR
03:01 6.7 °C 4.7 °C 1026.3 hPa Calm     87 % 0.0 mm 0.0 W/m2 CLR
03:06 6.6 °C 4.8 °C 1026.3 hPa Calm     88 % 0.0 mm 0.0 W/m2 CLR
03:12 6.6 °C 4.7 °C 1026.3 hPa Calm     88 % 0.0 mm 0.0 W/m2 CLR
03:17 6.6 °C 4.7 °C 1026.3 hPa Calm     88 % 0.0 mm 0.0 W/m2 CLR
03:22 6.4 °C 4.6 °C 1026.0 hPa Calm     88 % 0.0 mm 0.0 W/m2 CLR
03:27 6.4 °C 4.6 °C 1026.3 hPa Calm     88 % 0.0 mm 0.0 W/m2 CLR
03:32 6.3 °C 4.5 °C 1026.3 hPa Calm     88 % 0.0 mm 0.0 W/m2 CLR
03:37 6.2 °C 4.4 °C 1026.0 hPa Calm     88 % 0.0 mm 0.0 W/m2 CLR
03:42 6.2 °C 4.5 °C 1026.0 hPa Calm     89 % 0.0 mm 0.0 W/m2 CLR
03:47 6.1 °C 4.4 °C 1026.0 hPa Calm     89 % 0.0 mm 0.0 W/m2 CLR
03:52 6.1 °C 4.4 °C 1026.0 hPa Calm     89 % 0.0 mm 0.0 W/m2 CLR
03:57 6.0 °C 4.3 °C 1026.0 hPa Calm     89 % 0.0 mm 0.0 W/m2 CLR
04:02 5.9 °C 4.3 °C 1026.0 hPa Calm     89 % 0.0 mm 0.0 W/m2 CLR
04:07 5.9 °C 4.3 °C 1025.6 hPa Calm     89 % 0.0 mm 0.0 W/m2 CLR
04:12 5.9 °C 4.3 °C 1025.6 hPa Calm     89 % 0.0 mm 0.0 W/m2 CLR
04:17 5.9 °C 4.2 °C 1025.6 hPa Calm     89 % 0.0 mm 0.0 W/m2 CLR
04:22 5.9 °C 4.2 °C 1025.6 hPa Calm     89 % 0.0 mm 0.0 W/m2 CLR
04:27 5.8 °C 4.2 °C 1025.6 hPa Calm     89 % 0.0 mm 0.0 W/m2 CLR
04:32 5.7 °C 4.1 °C 1025.6 hPa Calm     89 % 0.0 mm 0.0 W/m2 CLR
04:37 5.6 °C 3.9 °C 1025.6 hPa Calm     89 % 0.0 mm 0.0 W/m2 CLR
04:42 5.5 °C 3.8 °C 1025.6 hPa Calm     89 % 0.0 mm 0.0 W/m2 CLR
04:47 5.4 °C 3.8 °C 1025.6 hPa Calm     89 % 0.0 mm 0.0 W/m2 CLR
04:49 5.4 °C 3.9 °C 1025.6 hPa Calm     90 % 0.0 mm 0.0 W/m2 CLR
04:54 5.4 °C 3.9 °C 1025.6 hPa Calm     90 % 0.0 mm 0.0 W/m2 CLR
04:58 5.4 °C 3.9 °C 1025.6 hPa Calm     90 % 0.0 mm 0.0 W/m2 CLR
05:04 5.5 °C 4.0 °C 1025.6 hPa Calm     90 % 0.0 mm 0.0 W/m2 CLR
05:09 5.5 °C 4.0 °C 1025.6 hPa Calm     90 % 0.0 mm 0.0 W/m2 CLR
05:14 5.4 °C 3.9 °C 1025.6 hPa Calm     90 % 0.0 mm 0.0 W/m2 CLR
05:19 5.4 °C 3.9 °C 1025.6 hPa Calm     90 % 0.0 mm 0.0 W/m2 CLR
05:24 5.3 °C 3.8 °C 1025.6 hPa Calm     90 % 0.0 mm 0.0 W/m2 CLR
05:29 5.3 °C 3.8 °C 1025.6 hPa Calm     90 % 0.0 mm 0.0 W/m2 CLR
05:34 5.2 °C 3.7 °C 1025.3 hPa Calm     90 % 0.0 mm 0.0 W/m2 CLR
05:39 5.1 °C 3.6 °C 1025.3 hPa Calm     90 % 0.0 mm 0.0 W/m2 CLR
05:44 5.1 °C 3.6 °C 1025.3 hPa Calm     90 % 0.0 mm 0.0 W/m2 CLR
05:49 5.1 °C 3.6 °C 1025.3 hPa Calm     90 % 0.0 mm 0.0 W/m2 CLR
05:54 5.0 °C 3.5 °C 1025.3 hPa Calm     90 % 0.0 mm 0.0 W/m2 CLR
05:59 4.9 °C 3.4 °C 1025.3 hPa Calm     90 % 0.0 mm 0.0 W/m2 CLR
06:04 4.8 °C 3.3 °C 1025.3 hPa Calm     90 % 0.0 mm 0.0 W/m2 CLR
06:09 4.8 °C 3.5 °C 1025.3 hPa Calm     91 % 0.0 mm 0.0 W/m2 CLR
06:14 4.9 °C 3.6 °C 1025.3 hPa Calm     91 % 0.0 mm 0.0 W/m2 CLR
06:19 4.9 °C 3.6 °C 1025.3 hPa Calm     91 % 0.0 mm 0.0 W/m2 CLR
06:24 4.9 °C 3.6 °C 1025.3 hPa Calm     91 % 0.0 mm 0.0 W/m2 CLR
06:29 4.8 °C 3.5 °C 1025.3 hPa Calm     91 % 0.0 mm 0.0 W/m2 CLR
06:34 4.8 °C 3.5 °C 1025.3 hPa Calm     91 % 0.0 mm 0.0 W/m2 CLR
06:39 4.9 °C 3.6 °C 1025.3 hPa Calm     91 % 0.0 mm 0.0 W/m2 CLR
06:44 5.0 °C 3.7 °C 1025.6 hPa Calm     91 % 0.0 mm 0.0 W/m2 CLR
06:49 5.2 °C 4.1 °C 1025.6 hPa Calm     92 % 0.0 mm 0.0 W/m2 CLR
06:54 5.3 °C 3.9 °C 1025.6 hPa Calm     91 % 0.0 mm 0.0 W/m2 CLR
06:55 5.3 °C 4.0 °C 1025.6 hPa Calm     91 % 0.0 mm 0.0 W/m2 CLR
07:00 5.2 °C 3.9 °C 1025.6 hPa Calm     91 % 0.0 mm 0.0 W/m2 CLR
07:05 5.1 °C 3.6 °C 1025.6 hPa Calm     90 % 0.0 mm 0.0 W/m2 CLR
07:10 5.0 °C 3.7 °C 1025.6 hPa Calm     91 % 0.0 mm 0.0 W/m2 CLR
07:15 4.8 °C 3.5 °C 1025.6 hPa Calm     91 % 0.0 mm 0.0 W/m2 CLR
07:20 4.8 °C 3.3 °C 1025.6 hPa Calm     90 % 0.0 mm 0.0 W/m2 CLR
07:25 4.7 °C 3.4 °C 1025.6 hPa Calm     91 % 0.0 mm 0.0 W/m2 CLR
07:30 4.7 °C 3.3 °C 1026.0 hPa Calm     91 % 0.0 mm 0.0 W/m2 CLR
07:35 4.7 °C 3.4 °C 1025.6 hPa Calm     91 % 0.0 mm 0.0 W/m2 CLR
07:40 4.6 °C 3.3 °C 1026.0 hPa Calm     91 % 0.0 mm 5.0 W/m2 OVC
07:45 4.5 °C 3.2 °C 1026.0 hPa Calm     91 % 0.0 mm 7.0 W/m2 BKN
07:50 4.5 °C 3.2 °C 1026.0 hPa Calm     91 % 0.0 mm 11.0 W/m2 BKN
07:55 4.5 °C 3.2 °C 1026.0 hPa Calm     91 % 0.0 mm 12.0 W/m2 BKN
08:00 4.6 °C 3.2 °C 1026.0 hPa Calm     91 % 0.0 mm 14.0 W/m2 BKN
08:05 4.6 °C 3.2 °C 1026.0 hPa Calm     91 % 0.0 mm 18.0 W/m2 BKN
08:10 4.7 °C 3.3 °C 1026.0 hPa Calm     91 % 0.0 mm 21.0 W/m2 BKN
08:15 4.8 °C 3.7 °C 1026.0 hPa Calm     92 % 0.0 mm 28.0 W/m2 BKN
08:20 4.9 °C 3.8 °C 1026.3 hPa Calm     92 % 0.0 mm 35.0 W/m2 BKN
08:25 5.1 °C 3.7 °C 1026.3 hPa Calm     91 % 0.0 mm 47.0 W/m2 SCT
08:30 5.1 °C 3.8 °C 1026.3 hPa Calm     91 % 0.0 mm 65.0 W/m2 SCT
08:35 5.3 °C 3.9 °C 1026.3 hPa Calm     91 % 0.0 mm 70.0 W/m2 FEW
08:40 5.4 °C 4.1 °C 1026.3 hPa Calm     91 % 0.0 mm 62.0 W/m2 SCT
08:45 5.7 °C 4.3 °C 1026.3 hPa Calm     91 % 0.0 mm 28.0 W/m2 BKN
08:50 5.9 °C 4.6 °C 1026.3 hPa Calm     91 % 0.0 mm 33.0 W/m2 BKN
08:55 6.1 °C 4.8 °C 1026.3 hPa Calm     91 % 0.0 mm 139.0 W/m2 BKN
09:01 6.2 °C 4.7 °C 1026.3 hPa Calm     90 % 0.0 mm 165.0 W/m2 FEW
09:06 6.4 °C 4.9 °C 1026.3 hPa Calm     90 % 0.0 mm 181.0 W/m2 CLR
09:11 6.8 °C 5.3 °C 1026.3 hPa Calm     90 % 0.0 mm 200.0 W/m2 CLR
09:16 7.2 °C 5.7 °C 1026.3 hPa Calm     90 % 0.0 mm 221.0 W/m2 CLR
09:21 7.7 °C 5.9 °C 1026.3 hPa Calm     89 % 0.0 mm 232.0 W/m2 CLR
09:26 8.2 °C 6.3 °C 1026.3 hPa Calm     88 % 0.0 mm 257.0 W/m2 CLR
09:31 8.7 °C 6.7 °C 1026.3 hPa Calm     87 % 0.0 mm 271.0 W/m2 CLR
09:36 9.1 °C 6.7 °C 1026.0 hPa Calm     85 % 0.0 mm 290.0 W/m2 CLR
09:41 9.7 °C 7.1 °C 1026.0 hPa Calm     84 % 0.0 mm 302.0 W/m2 CLR
09:46 10.2 °C 7.2 °C 1026.0 hPa Calm     82 % 0.0 mm 316.0 W/m2 CLR
09:51 10.6 °C 7.3 °C 1026.0 hPa Calm     80 % 0.0 mm 332.0 W/m2 CLR
09:56 11.2 °C 7.8 °C 1026.0 hPa Calm     80 % 0.0 mm 352.0 W/m2 CLR
10:01 11.6 °C 7.9 °C 1026.0 hPa Calm     78 % 0.0 mm 367.0 W/m2 CLR
10:06 12.2 °C 8.1 °C 1026.0 hPa Calm     76 % 0.0 mm 381.0 W/m2 CLR
10:11 12.6 °C 8.1 °C 1026.0 hPa Calm     74 % 0.0 mm 397.0 W/m2 CLR
10:16 13.0 °C 8.3 °C 1026.0 hPa Calm     73 % 0.0 mm 415.0 W/m2 CLR
10:21 13.3 °C 8.0 °C 1026.0 hPa Calm     70 % 0.0 mm 432.0 W/m2 CLR
10:26 13.6 °C 8.0 °C 1026.0 hPa Calm     69 % 0.0 mm 446.0 W/m2 CLR
10:31 14.0 °C 8.4 °C 1026.0 hPa Calm     69 % 0.0 mm 459.0 W/m2 CLR
10:36 14.5 °C 8.4 °C 1026.0 hPa Calm     67 % 0.0 mm 473.0 W/m2 CLR
10:41 14.9 °C 8.1 °C 1025.6 hPa Calm     64 % 0.0 mm 492.0 W/m2 CLR
10:46 15.2 °C 8.7 °C 1025.6 hPa Calm     65 % 0.0 mm 504.0 W/m2 CLR
10:51 15.5 °C 8.7 °C 1025.6 hPa Calm     64 % 0.0 mm 522.0 W/m2 CLR
10:56 15.8 °C 9.2 °C 1025.6 hPa Calm     65 % 0.0 mm 536.0 W/m2 CLR
11:01 16.1 °C 9.1 °C 1025.6 hPa Calm     63 % 0.0 mm 550.0 W/m2 CLR
11:06 16.4 °C 9.4 °C 1025.6 hPa ENE 7.4 km/h 7.4 km/h 63 % 0.0 mm 563.0 W/m2 CLR
11:11 16.7 °C 9.6 °C 1025.3 hPa NE 7.4 km/h 7.4 km/h 63 % 0.0 mm 577.0 W/m2 CLR
11:12 16.7 °C 9.6 °C 1025.3 hPa NE 7.4 km/h 7.4 km/h 63 % 0.0 mm 577.0 W/m2 CLR
11:17 16.9 °C 9.8 °C 1025.3 hPa NE 7.4 km/h 7.4 km/h 63 % 0.0 mm 587.0 W/m2 CLR
11:22 17.1 °C 9.5 °C 1025.3 hPa ENE 6.4 km/h 6.4 km/h 61 % 0.0 mm 601.0 W/m2 CLR
11:27 17.2 °C 9.4 °C 1025.3 hPa ENE 5.6 km/h 5.6 km/h 60 % 0.0 mm 613.0 W/m2 CLR
11:32 17.5 °C 9.9 °C 1025.3 hPa ENE 5.6 km/h 5.6 km/h 61 % 0.0 mm 629.0 W/m2 CLR
11:37 17.8 °C 9.7 °C 1025.3 hPa NNE 3.7 km/h 3.7 km/h 59 % 0.0 mm 640.0 W/m2 CLR
11:42 18.0 °C 9.6 °C 1024.9 hPa NNE 5.6 km/h 5.6 km/h 58 % 0.0 mm 652.0 W/m2 CLR
11:47 18.2 °C 9.8 °C 1024.9 hPa ENE 11.1 km/h 11.1 km/h 58 % 0.0 mm 666.0 W/m2 CLR
11:52 18.3 °C 9.7 °C 1024.9 hPa NNE 9.3 km/h 9.3 km/h 57 % 0.0 mm 679.0 W/m2 CLR
11:57 18.6 °C 9.3 °C 1024.9 hPa NE 9.3 km/h 9.3 km/h 55 % 0.0 mm 675.0 W/m2 CLR
12:02 18.7 °C 8.9 °C 1024.9 hPa East 11.1 km/h 11.1 km/h 53 % 0.0 mm 696.0 W/m2 CLR
12:07 18.7 °C 9.2 °C 1024.9 hPa NE 5.6 km/h 5.6 km/h 54 % 0.0 mm 698.0 W/m2 CLR
12:12 19.1 °C 9.3 °C 1024.9 hPa NE 9.3 km/h 9.3 km/h 53 % 0.0 mm 715.0 W/m2 CLR
12:17 19.3 °C 9.2 °C 1024.6 hPa ENE 1.9 km/h 1.9 km/h 52 % 0.0 mm 721.0 W/m2 CLR
12:22 19.7 °C 9.6 °C 1024.6 hPa NNE 9.3 km/h 9.3 km/h 52 % 0.0 mm 722.0 W/m2 CLR
12:27 19.8 °C 9.1 °C 1024.6 hPa NE 7.4 km/h 7.4 km/h 50 % 0.0 mm 728.0 W/m2 CLR
12:32 20.0 °C 9.6 °C 1024.6 hPa ENE 7.4 km/h 7.4 km/h 51 % 0.0 mm 751.0 W/m2 CLR
12:37 20.1 °C 9.3 °C 1024.3 hPa East 14.8 km/h 14.8 km/h 50 % 0.0 mm 759.0 W/m2 CLR
12:42 20.3 °C 9.5 °C 1024.3 hPa ENE 11.1 km/h 11.1 km/h 50 % 0.0 mm 756.0 W/m2 CLR
12:47 20.6 °C 10.1 °C 1024.3 hPa ENE 7.4 km/h 7.4 km/h 51 % 0.0 mm 766.0 W/m2 CLR
12:52 20.8 °C 9.7 °C 1024.3 hPa NNE 12.9 km/h 12.9 km/h 49 % 0.0 mm 775.0 W/m2 CLR
12:57 21.1 °C 9.6 °C 1023.9 hPa Calm     48 % 0.0 mm 784.0 W/m2 CLR
13:02 21.4 °C 9.3 °C 1023.9 hPa ENE 7.4 km/h 7.4 km/h 46 % 0.0 mm 784.0 W/m2 CLR
13:07 21.4 °C 9.3 °C 1023.9 hPa East 8.0 km/h 8.0 km/h 46 % 0.0 mm 780.0 W/m2 CLR
13:12 21.4 °C 9.7 °C 1023.9 hPa ENE 1.9 km/h 1.9 km/h 47 % 0.0 mm 780.0 W/m2 CLR
13:17 21.3 °C 8.6 °C 1023.9 hPa Calm     44 % 0.0 mm 780.0 W/m2 CLR
13:22 21.6 °C 9.8 °C 1023.6 hPa NNE 7.4 km/h 7.4 km/h 47 % 0.0 mm 800.0 W/m2 CLR
13:27 21.8 °C 9.0 °C 1023.6 hPa ENE 5.6 km/h 5.6 km/h 44 % 0.0 mm 798.0 W/m2 CLR
13:32 21.9 °C 9.1 °C 1023.6 hPa ESE 11.1 km/h 11.1 km/h 44 % 0.0 mm 798.0 W/m2 CLR
13:37 22.1 °C 9.6 °C 1023.2 hPa ENE 13.0 km/h 13.0 km/h 45 % 0.0 mm 793.0 W/m2 CLR
13:42 22.2 °C 9.0 °C 1023.2 hPa NE 16.1 km/h 16.1 km/h 43 % 0.0 mm 802.0 W/m2 CLR
13:47 22.1 °C 9.2 °C 1023.2 hPa East 14.8 km/h 14.8 km/h 44 % 0.0 mm 777.0 W/m2 CLR
13:52 22.3 °C 9.2 °C 1023.2 hPa East 9.3 km/h 9.3 km/h 43 % 0.0 mm 798.0 W/m2 CLR
13:57 22.4 °C 8.9 °C 1023.2 hPa ENE 14.8 km/h 14.8 km/h 42 % 0.0 mm 803.0 W/m2 CLR
14:01 22.6 °C 9.0 °C 1023.2 hPa NE 5.6 km/h 5.6 km/h 42 % 0.0 mm 805.0 W/m2 CLR
14:06 22.4 °C 8.6 °C 1023.2 hPa SE 11.1 km/h 11.1 km/h 41 % 0.0 mm 809.0 W/m2 CLR
14:11 22.4 °C 8.5 °C 1022.9 hPa East 20.4 km/h 20.4 km/h 41 % 0.0 mm 786.0 W/m2 CLR
14:16 22.2 °C 8.7 °C 1022.9 hPa East 16.7 km/h 16.7 km/h 42 % 0.0 mm 784.0 W/m2 CLR
14:21 22.2 °C 9.1 °C 1022.6 hPa East 18.5 km/h 18.5 km/h 43 % 0.0 mm 807.0 W/m2 CLR
14:26 22.3 °C 9.5 °C 1022.6 hPa SE 16.7 km/h 16.7 km/h 44 % 0.0 mm 793.0 W/m2 CLR
14:31 22.4 °C 9.6 °C 1022.6 hPa East 11.3 km/h 11.3 km/h 44 % 0.0 mm 772.0 W/m2 CLR
14:36 22.4 °C 9.9 °C 1022.6 hPa ESE 18.5 km/h 18.5 km/h 45 % 0.0 mm 786.0 W/m2 CLR
14:41 22.3 °C 9.8 °C 1022.2 hPa East 18.5 km/h 18.5 km/h 45 % 0.0 mm 773.0 W/m2 CLR
14:46 22.4 °C 9.9 °C 1022.6 hPa SSE 20.4 km/h 20.4 km/h 45 % 0.0 mm 758.0 W/m2 CLR
14:51 22.4 °C 9.9 °C 1022.6 hPa SE 18.5 km/h 18.5 km/h 45 % 0.0 mm 772.0 W/m2 CLR
14:56 22.4 °C 9.9 °C 1022.2 hPa ESE 18.5 km/h 18.5 km/h 45 % 0.0 mm 789.0 W/m2 CLR
15:01 22.2 °C 9.7 °C 1022.2 hPa ENE 24.1 km/h 24.1 km/h 45 % 0.0 mm 784.0 W/m2 CLR
15:06 22.1 °C 10.2 °C 1022.2 hPa ESE 18.5 km/h 18.5 km/h 47 % 0.0 mm 775.0 W/m2 CLR
15:11 22.1 °C 10.3 °C 1022.2 hPa ESE 24.1 km/h 24.1 km/h 47 % 0.0 mm 737.0 W/m2 CLR
15:16 22.1 °C 10.3 °C 1022.2 hPa East 14.8 km/h 14.8 km/h 47 % 0.0 mm 752.0 W/m2 CLR
15:21 22.3 °C 10.2 °C 1022.2 hPa ESE 22.2 km/h 22.2 km/h 46 % 0.0 mm 728.0 W/m2 CLR
15:26 22.2 °C 10.0 °C 1022.2 hPa ESE 18.5 km/h 18.5 km/h 46 % 0.0 mm 784.0 W/m2 CLR
15:31 22.1 °C 10.2 °C 1021.9 hPa ESE 24.1 km/h 24.1 km/h 47 % 0.0 mm 768.0 W/m2 CLR
15:36 22.1 °C 9.9 °C 1021.9 hPa East 22.2 km/h 22.2 km/h 46 % 0.0 mm 745.0 W/m2 CLR
15:41 22.2 °C 10.4 °C 1021.9 hPa East 22.2 km/h 22.2 km/h 47 % 0.0 mm 729.0 W/m2 CLR
15:46 22.1 °C 9.9 °C 1021.9 hPa ESE 25.9 km/h 25.9 km/h 46 % 0.0 mm 737.0 W/m2 CLR
15:51 22.3 °C 10.1 °C 1021.9 hPa ESE 18.5 km/h 18.5 km/h 46 % 0.0 mm 726.0 W/m2 CLR
15:56 22.2 °C 10.7 °C 1021.6 hPa ESE 14.8 km/h 14.8 km/h 48 % 0.0 mm 657.0 W/m2 CLR
16:01 22.2 °C 10.3 °C 1021.6 hPa SE 18.5 km/h 18.5 km/h 47 % 0.0 mm 654.0 W/m2 CLR
16:06 22.2 °C 10.1 °C 1021.6 hPa ESE 24.1 km/h 24.1 km/h 46 % 0.0 mm 580.0 W/m2 CLR
16:11 21.9 °C 9.8 °C 1021.6 hPa ESE 24.1 km/h 24.1 km/h 46 % 0.0 mm 594.0 W/m2 CLR
16:16 21.8 °C 10.0 °C 1021.6 hPa ESE 18.5 km/h 18.5 km/h 47 % 0.0 mm 578.0 W/m2 CLR
16:21 21.9 °C 10.1 °C 1021.6 hPa SE 22.2 km/h 22.2 km/h 47 % 0.0 mm 661.0 W/m2 CLR
16:26 22.1 °C 10.6 °C 1021.2 hPa SE 16.7 km/h 16.7 km/h 48 % 0.0 mm 663.0 W/m2 CLR
16:31 22.1 °C 10.6 °C 1021.2 hPa East 14.8 km/h 14.8 km/h 48 % 0.0 mm 606.0 W/m2 CLR
16:36 22.1 °C 10.6 °C 1021.2 hPa ESE 22.2 km/h 22.2 km/h 48 % 0.0 mm 519.0 W/m2 CLR
16:41 21.9 °C 10.1 °C 1021.2 hPa SSE 22.2 km/h 22.2 km/h 47 % 0.0 mm 438.0 W/m2 CLR
16:46 21.7 °C 9.9 °C 1021.2 hPa SE 25.9 km/h 25.9 km/h 47 % 0.0 mm 464.0 W/m2 CLR
16:51 21.5 °C 10.0 °C 1021.2 hPa ESE 20.4 km/h 20.4 km/h 48 % 0.0 mm 510.0 W/m2 CLR
16:56 21.3 °C 10.2 °C 1021.2 hPa SE 29.6 km/h 29.6 km/h 49 % 0.0 mm 480.0 W/m2 CLR
17:01 21.3 °C 10.2 °C 1021.2 hPa SE 22.2 km/h 22.2 km/h 49 % 0.0 mm 608.0 W/m2 CLR
17:06 21.3 °C 10.2 °C 1021.2 hPa SE 25.9 km/h 25.9 km/h 49 % 0.0 mm 526.0 W/m2 CLR
17:11 21.2 °C 10.7 °C 1021.2 hPa ESE 29.6 km/h 29.6 km/h 51 % 0.0 mm 489.0 W/m2 CLR
17:16 21.1 °C 10.6 °C 1021.2 hPa SE 24.1 km/h 24.1 km/h 51 % 0.0 mm 399.0 W/m2 CLR
17:21 21.1 °C 10.3 °C 1021.2 hPa SE 24.1 km/h 24.1 km/h 50 % 0.0 mm 394.0 W/m2 CLR
17:26 20.9 °C 10.4 °C 1020.9 hPa ESE 24.1 km/h 24.1 km/h 51 % 0.0 mm 376.0 W/m2 CLR
17:31 20.7 °C 10.4 °C 1021.2 hPa ESE 24.1 km/h 24.1 km/h 52 % 0.0 mm 420.0 W/m2 CLR
17:36 20.5 °C 10.6 °C 1021.2 hPa SE 29.6 km/h 29.6 km/h 53 % 0.0 mm 410.0 W/m2 CLR
17:41 20.6 °C 10.7 °C 1021.2 hPa SE 18.5 km/h 18.5 km/h 53 % 0.0 mm 418.0 W/m2 CLR
17:46 20.5 °C 10.3 °C 1021.2 hPa SE 24.1 km/h 24.1 km/h 52 % 0.0 mm 343.0 W/m2 CLR
17:48 20.4 °C 10.2 °C 1021.2 hPa SE 24.1 km/h 24.1 km/h 52 % 0.0 mm 374.0 W/m2 CLR
17:53 20.2 °C 9.7 °C 1021.2 hPa ESE 27.8 km/h 27.8 km/h 51 % 0.0 mm 350.0 W/m2 CLR
17:58 20.2 °C 9.7 °C 1021.2 hPa ESE 25.7 km/h 25.7 km/h 51 % 0.0 mm 325.0 W/m2 CLR
18:03 20.2 °C 9.4 °C 1021.2 hPa SE 22.2 km/h 22.2 km/h 50 % 0.0 mm 343.0 W/m2 CLR
18:08 20.1 °C 9.0 °C 1021.2 hPa ESE 24.1 km/h 24.1 km/h 49 % 0.0 mm 260.0 W/m2 CLR
18:13 20.1 °C 8.7 °C 1021.2 hPa ESE 18.5 km/h 18.5 km/h 48 % 0.0 mm 234.0 W/m2 CLR
18:18 20.2 °C 8.5 °C 1020.9 hPa ESE 19.3 km/h 19.3 km/h 47 % 0.0 mm 258.0 W/m2 CLR
18:23 20.2 °C 8.6 °C 1021.2 hPa SE 18.5 km/h 18.5 km/h 47 % 0.0 mm 244.0 W/m2 FEW
18:28 20.2 °C 8.6 °C 1021.2 hPa SE 20.4 km/h 20.4 km/h 47 % 0.0 mm 269.0 W/m2 BKN
18:33 20.2 °C 8.6 °C 1020.9 hPa ESE 19.3 km/h 19.3 km/h 47 % 0.0 mm 200.0 W/m2 OVC
18:38 20.2 °C 8.8 °C 1020.9 hPa ESE 20.4 km/h 20.4 km/h 48 % 0.0 mm 193.0 W/m2 OVC
18:43 20.1 °C 8.4 °C 1020.9 hPa ESE 11.1 km/h 11.1 km/h 47 % 0.0 mm 199.0 W/m2 OVC
18:48 20.1 °C 8.7 °C 1021.2 hPa SE 11.3 km/h 11.3 km/h 48 % 0.0 mm 178.0 W/m2 OVC
18:53 20.1 °C 8.7 °C 1021.2 hPa SE 9.3 km/h 9.3 km/h 48 % 0.0 mm 151.0 W/m2 OVC
18:58 19.9 °C 8.6 °C 1021.2 hPa SE 11.3 km/h 11.3 km/h 48 % 0.0 mm 123.0 W/m2 OVC
19:03 19.9 °C 8.6 °C 1020.9 hPa ESE 20.4 km/h 20.4 km/h 48 % 0.0 mm 125.0 W/m2 OVC
19:08 19.9 °C 8.6 °C 1021.2 hPa SE 7.4 km/h 7.4 km/h 48 % 0.0 mm 111.0 W/m2 OVC
19:13 19.8 °C 8.5 °C 1021.2 hPa SE 13.0 km/h 13.0 km/h 48 % 0.0 mm 102.0 W/m2 OVC
19:18 19.7 °C 7.4 °C 1021.2 hPa SE 18.5 km/h 18.5 km/h 45 % 0.0 mm 90.0 W/m2 OVC
19:23 19.7 °C 7.4 °C 1021.2 hPa SE 16.7 km/h 16.7 km/h 45 % 0.0 mm 81.0 W/m2 OVC
19:28 19.6 °C 6.9 °C 1020.9 hPa SSE 20.9 km/h 20.9 km/h 44 % 0.0 mm 72.0 W/m2 OVC
19:33 19.4 °C 7.2 °C 1021.2 hPa SSE 13.0 km/h 13.0 km/h 45 % 0.0 mm 63.0 W/m2 OVC
19:38 19.3 °C 7.4 °C 1021.2 hPa SSE 5.6 km/h   46 % 0.0 mm 54.0 W/m2 OVC
19:43 19.1 °C 7.5 °C 1021.2 hPa SSE 5.6 km/h 5.6 km/h 47 % 0.0 mm 44.0 W/m2 OVC
19:48 18.9 °C 7.3 °C 1021.2 hPa South 1.6 km/h 1.6 km/h 47 % 0.0 mm 37.0 W/m2 OVC
19:53 18.8 °C 7.2 °C 1021.2 hPa SE 4.8 km/h 4.8 km/h 47 % 0.0 mm 30.0 W/m2 OVC
19:58 18.6 °C 7.1 °C 1021.2 hPa SSE 7.4 km/h 7.4 km/h 47 % 0.0 mm 25.0 W/m2 OVC
20:03 18.4 °C 7.2 °C 1021.6 hPa SSE 3.7 km/h   48 % 0.0 mm 19.0 W/m2 OVC
20:08 18.3 °C 6.8 °C 1021.6 hPa SSE 7.4 km/h 7.4 km/h 47 % 0.0 mm 14.0 W/m2 OVC
20:13 18.2 °C 6.9 °C 1021.6 hPa SSE 11.3 km/h 11.3 km/h 48 % 0.0 mm 7.0 W/m2 OVC
20:18 17.9 °C 6.7 °C 1021.6 hPa SSE 11.1 km/h 11.1 km/h 48 % 0.0 mm 0.0 W/m2 OVC
20:23 17.7 °C 6.6 °C 1021.6 hPa SSE 9.3 km/h 9.3 km/h 48 % 0.0 mm 0.0 W/m2 OVC
20:28 17.6 °C 6.4 °C 1021.6 hPa SSE 7.4 km/h 7.4 km/h 48 % 0.0 mm 0.0 W/m2 OVC
20:33 17.4 °C 6.3 °C 1021.6 hPa SE 5.6 km/h 5.6 km/h 48 % 0.0 mm 0.0 W/m2 CLR
20:38 17.3 °C 5.8 °C 1021.6 hPa SSE 7.4 km/h 7.4 km/h 47 % 0.0 mm 0.0 W/m2 CLR
20:43 17.1 °C 6.0 °C 1021.6 hPa Calm   2.7 km/h 48 % 0.0 mm 0.0 W/m2 CLR
20:48 17.0 °C 5.6 °C 1021.6 hPa SSE 9.3 km/h 9.3 km/h 47 % 0.0 mm 0.0 W/m2 CLR
20:53 16.9 °C 5.5 °C 1021.6 hPa SE 5.6 km/h 5.6 km/h 47 % 0.0 mm 0.0 W/m2 CLR
20:58 16.8 °C 5.1 °C 1021.6 hPa South 11.3 km/h 11.3 km/h 46 % 0.0 mm 0.0 W/m2 CLR
21:03 17.0 °C 4.7 °C 1021.9 hPa SSE 18.5 km/h 18.5 km/h 44 % 0.0 mm 0.0 W/m2 CLR
21:08 17.0 °C 4.9 °C 1021.9 hPa SSE 14.8 km/h 14.8 km/h 45 % 0.0 mm 0.0 W/m2 CLR
21:13 16.8 °C 4.8 °C 1021.9 hPa SSE 18.5 km/h 18.5 km/h 45 % 0.0 mm 0.0 W/m2 CLR
21:18 16.7 °C 4.7 °C 1021.9 hPa SSE 12.9 km/h 12.9 km/h 45 % 0.0 mm 0.0 W/m2 CLR
21:24 16.6 °C 4.6 °C 1021.9 hPa SSE 7.4 km/h 7.4 km/h 45 % 0.0 mm 0.0 W/m2 CLR
21:29 16.5 °C 4.5 °C 1021.9 hPa South 13.0 km/h 13.0 km/h 45 % 0.0 mm 0.0 W/m2 CLR
21:33 16.4 °C 4.4 °C 1021.9 hPa SSE 9.3 km/h 9.3 km/h 45 % 0.0 mm 0.0 W/m2 CLR
21:39 16.4 °C 4.4 °C 1022.2 hPa SSE 6.4 km/h 6.4 km/h 45 % 0.0 mm 0.0 W/m2 CLR
21:44 16.3 °C 4.6 °C 1022.2 hPa SE 5.6 km/h 5.6 km/h 46 % 0.0 mm 0.0 W/m2 CLR
21:49 16.1 °C 4.5 °C 1022.2 hPa South 5.6 km/h 5.6 km/h 46 % 0.0 mm 0.0 W/m2 CLR
21:54 16.1 °C 4.4 °C 1022.2 hPa SSE 9.3 km/h 9.3 km/h 46 % 0.0 mm 0.0 W/m2 CLR
21:59 16.1 °C 4.4 °C 1022.2 hPa SSE 7.4 km/h 7.4 km/h 46 % 0.0 mm 0.0 W/m2 CLR
22:04 15.9 °C 4.6 °C 1022.2 hPa SE 13.0 km/h 13.0 km/h 47 % 0.0 mm 0.0 W/m2 CLR
22:09 15.9 °C 4.3 °C 1022.2 hPa SSE 16.7 km/h 16.7 km/h 46 % 0.0 mm 0.0 W/m2 CLR
22:14 15.9 °C 4.3 °C 1022.2 hPa SSE 16.7 km/h 16.7 km/h 46 % 0.0 mm 0.0 W/m2 CLR
22:19 16.0 °C 4.4 °C 1022.2 hPa SSE 18.5 km/h 18.5 km/h 46 % 0.0 mm 0.0 W/m2 CLR
22:24 15.9 °C 4.6 °C 1022.2 hPa SSE 13.0 km/h 13.0 km/h 47 % 0.0 mm 0.0 W/m2 CLR
22:29 15.8 °C 4.6 °C 1022.2 hPa SSE 6.4 km/h 6.4 km/h 47 % 0.0 mm 0.0 W/m2 CLR
22:34 15.8 °C 4.5 °C 1022.2 hPa SSE 7.4 km/h 7.4 km/h 47 % 0.0 mm 0.0 W/m2 CLR
22:39 15.7 °C 4.4 °C 1022.2 hPa South 13.0 km/h 13.0 km/h 47 % 0.0 mm 0.0 W/m2 CLR
22:44 15.7 °C 4.7 °C 1022.2 hPa Calm     48 % 0.0 mm 0.0 W/m2 CLR
22:49 15.8 °C 4.5 °C 1022.2 hPa South 5.6 km/h 5.6 km/h 47 % 0.0 mm 0.0 W/m2 CLR
22:54 15.8 °C 4.2 °C 1022.2 hPa SSE 7.4 km/h 7.4 km/h 46 % 0.0 mm 0.0 W/m2 CLR
22:59 15.8 °C 4.2 °C 1022.2 hPa ESE 7.4 km/h 7.4 km/h 46 % 0.0 mm 0.0 W/m2 CLR
23:04 15.7 °C 4.1 °C 1022.2 hPa South 7.4 km/h 7.4 km/h 46 % 0.0 mm 0.0 W/m2 CLR
23:09 15.7 °C 4.1 °C 1022.2 hPa SE 8.0 km/h 8.0 km/h 46 % 0.0 mm 0.0 W/m2 CLR
23:14 15.6 °C 4.0 °C 1022.2 hPa South 5.6 km/h 5.6 km/h 46 % 0.0 mm 0.0 W/m2 CLR
23:19 15.7 °C 4.1 °C 1022.2 hPa South 16.1 km/h 16.1 km/h 46 % 0.0 mm 0.0 W/m2 CLR
23:24 15.6 °C 4.0 °C 1022.2 hPa South 7.4 km/h 7.4 km/h 46 % 0.0 mm 0.0 W/m2 CLR
23:29 15.4 °C 3.8 °C 1022.2 hPa SSW 5.6 km/h 5.6 km/h 46 % 0.0 mm 0.0 W/m2 CLR
23:34 15.2 °C 3.9 °C 1022.2 hPa South 7.4 km/h 7.4 km/h 47 % 0.0 mm 0.0 W/m2 CLR
23:39 14.9 °C 4.0 °C 1022.2 hPa South 6.4 km/h 6.4 km/h 48 % 0.0 mm 0.0 W/m2 CLR
23:44 14.8 °C 3.9 °C 1022.2 hPa SSE 3.7 km/h   48 % 0.0 mm 0.0 W/m2 CLR
23:49 14.8 °C 3.9 °C 1022.2 hPa Calm     48 % 0.0 mm 0.0 W/m2 CLR
23:54 14.7 °C 3.8 °C 1022.2 hPa Calm     48 % 0.0 mm 0.0 W/m2 CLR
23:59 14.6 °C 3.7 °C 1022.2 hPa Calm     48 % 0.0 mm 0.0 W/m2 CLR
Lo Temps de Massalio
Compliments of Weather Underground - 1.25 mb